createdAt,value
2023-09-06T00:04:56.772Z,18.09
2023-09-06T00:09:58.531Z,18.13
2023-09-06T00:15:00.108Z,18.36
2023-09-06T00:20:01.785Z,18.32
2023-09-06T00:25:03.677Z,18.48
2023-09-06T00:30:05.991Z,18.26
2023-09-06T00:35:08.104Z,18.12
2023-09-06T00:40:19.937Z,18.28
2023-09-06T00:45:27.458Z,18.12
2023-09-06T00:50:29.510Z,17.97
2023-09-06T00:55:31.196Z,18.23
2023-09-06T01:00:34.301Z,17.83
2023-09-06T01:05:57.412Z,17.85
2023-09-06T01:11:22.563Z,17.77
2023-09-06T01:16:30.295Z,17.49
2023-09-06T01:22:04.450Z,17.18
2023-09-06T01:27:06.831Z,16.91
2023-09-06T01:32:08.488Z,16.84
2023-09-06T01:37:10.167Z,16.66
2023-09-06T01:42:11.756Z,16.81
2023-09-06T01:47:13.371Z,16.68
2023-09-06T01:52:15.195Z,16.59
2023-09-06T01:57:17.055Z,16.46
2023-09-06T02:02:18.705Z,16.24
2023-09-06T02:07:20.225Z,16.11
2023-09-06T02:12:21.824Z,16.06
2023-09-06T02:17:26.646Z,15.92
2023-09-06T02:22:28.510Z,15.84
2023-09-06T02:27:30.060Z,15.75
2023-09-06T02:32:33.213Z,15.73
2023-09-06T02:37:36.141Z,15.68
2023-09-06T02:42:37.743Z,15.63
2023-09-06T02:47:49.221Z,15.54
2023-09-06T02:52:53.903Z,15.46
2023-09-06T02:57:56.339Z,15.36
2023-09-06T03:03:06.717Z,15.35
2023-09-06T03:08:10.022Z,15.28
2023-09-06T03:13:11.760Z,15.22
2023-09-06T03:18:13.434Z,15.13
2023-09-06T03:23:19.443Z,15.15
2023-09-06T03:28:23.016Z,15.04
2023-09-06T03:33:24.650Z,14.99
2023-09-06T03:38:30.074Z,14.94
2023-09-06T03:43:33.436Z,14.81
2023-09-06T03:48:36.065Z,14.77
2023-09-06T03:53:39.353Z,14.75
2023-09-06T03:58:42.875Z,14.75
2023-09-06T04:03:44.488Z,14.68
2023-09-06T04:08:47.117Z,14.57
2023-09-06T04:13:48.915Z,14.50
2023-09-06T04:18:50.551Z,14.45
2023-09-06T04:23:52.322Z,14.62
2023-09-06T04:28:53.885Z,14.49
2023-09-06T04:33:55.422Z,14.48
2023-09-06T04:38:57.955Z,14.57
2023-09-06T04:43:59.509Z,14.70
2023-09-06T04:49:01.681Z,14.70
2023-09-06T04:54:03.947Z,14.61
2023-09-06T04:59:05.512Z,14.64
2023-09-06T05:04:07.381Z,14.78
2023-09-06T05:09:09.666Z,14.80
2023-09-06T05:14:11.875Z,14.72
2023-09-06T05:19:13.692Z,14.51
2023-09-06T05:24:15.583Z,14.44
2023-09-06T05:29:23.104Z,14.48
2023-09-06T05:34:25.437Z,14.51
2023-09-06T05:39:27.098Z,14.53
2023-09-06T05:44:28.758Z,14.75
2023-09-06T05:49:30.606Z,15.00
2023-09-06T05:54:32.656Z,15.30
2023-09-06T05:59:34.288Z,15.86
2023-09-06T06:04:36.033Z,16.33
2023-09-06T06:09:37.595Z,16.56
2023-09-06T06:14:39.145Z,17.24
2023-09-06T06:19:40.828Z,17.63
2023-09-06T06:24:46.833Z,17.63
2023-09-06T06:29:48.373Z,17.89
2023-09-06T06:34:52.241Z,18.06
2023-09-06T06:39:54.004Z,18.42
2023-09-06T06:44:55.715Z,18.79
2023-09-06T06:49:58.822Z,18.79
2023-09-06T06:55:00.499Z,19.17
2023-09-06T07:00:06.977Z,19.22
2023-09-06T07:05:09.150Z,19.40
2023-09-06T07:10:11.267Z,19.28
2023-09-06T07:15:14.069Z,19.76
2023-09-06T07:20:15.842Z,19.97
2023-09-06T07:25:17.655Z,20.45
2023-09-06T07:30:19.145Z,20.59
2023-09-06T07:35:20.849Z,20.62
2023-09-06T07:40:22.467Z,20.54
2023-09-06T07:45:24.011Z,20.70
2023-09-06T07:50:25.671Z,20.79
2023-09-06T07:55:28.954Z,21.44
2023-09-06T08:00:32.251Z,21.64
2023-09-06T08:05:34.284Z,21.70
2023-09-06T08:10:39.318Z,22.05
2023-09-06T08:15:40.891Z,22.21
2023-09-06T08:20:42.534Z,22.34
2023-09-06T08:25:44.160Z,22.52
2023-09-06T08:30:48.288Z,22.50
2023-09-06T08:35:50.419Z,23.01
2023-09-06T08:40:52.212Z,22.99
2023-09-06T08:45:54.294Z,22.97
2023-09-06T08:50:57.839Z,23.22
2023-09-06T08:56:00.291Z,23.51
2023-09-06T09:01:05.052Z,23.36
2023-09-06T09:06:10.258Z,23.79
2023-09-06T09:11:22.585Z,23.85
2023-09-06T09:16:25.315Z,23.93
2023-09-06T09:21:29.853Z,24.05
2023-09-06T09:26:34.119Z,24.09
2023-09-06T09:31:35.618Z,24.54
2023-09-06T09:36:39.038Z,24.57
2023-09-06T09:41:57.496Z,24.73
2023-09-06T09:47:38.307Z,25.03
2023-09-06T09:52:36.168Z,25.47
2023-09-06T09:57:38.417Z,25.78
2023-09-06T10:02:42.052Z,26.29
2023-09-06T10:07:49.511Z,26.29
2023-09-06T10:12:53.514Z,27.01
2023-09-06T10:17:58.028Z,27.09
2023-09-06T10:23:01.157Z,26.91
2023-09-06T10:28:02.990Z,27.69
2023-09-06T10:33:05.031Z,27.95
2023-09-06T10:38:12.777Z,28.08
2023-09-06T10:43:15.222Z,27.40
2023-09-06T10:48:16.886Z,28.50
2023-09-06T10:53:20.100Z,28.88
2023-09-06T10:58:27.694Z,28.91
2023-09-06T11:03:33.106Z,28.57
2023-09-06T11:08:35.134Z,29.13
2023-09-06T11:13:43.076Z,28.52
2023-09-06T11:18:49.347Z,29.27
2023-09-06T11:23:53.163Z,29.55
2023-09-06T11:29:05.877Z,29.40
2023-09-06T11:34:10.310Z,29.48
2023-09-06T11:39:19.787Z,29.70
2023-09-06T11:44:24.500Z,29.75
2023-09-06T11:49:27.216Z,29.87
2023-09-06T11:54:32.871Z,29.88
2023-09-06T11:59:34.464Z,30.06
2023-09-06T12:04:36.452Z,29.80
2023-09-06T12:09:38.016Z,29.97
2023-09-06T12:14:43.724Z,29.52
2023-09-06T12:19:45.756Z,29.65
2023-09-06T12:24:48.745Z,29.68
2023-09-06T12:29:50.421Z,29.91
2023-09-06T12:34:53.635Z,29.67
2023-09-06T12:39:55.984Z,29.43
2023-09-06T12:44:57.857Z,29.29
2023-09-06T12:50:01.049Z,29.61
2023-09-06T12:55:05.883Z,29.95
2023-09-06T13:00:14.230Z,29.68
2023-09-06T13:05:21.468Z,29.46
2023-09-06T13:10:25.890Z,29.49
2023-09-06T13:15:27.563Z,29.67
2023-09-06T13:20:29.277Z,29.64
2023-09-06T13:25:31.151Z,29.58
2023-09-06T13:30:32.902Z,29.57
2023-09-06T13:35:34.708Z,29.37
2023-09-06T13:40:36.390Z,29.23
2023-09-06T13:45:40.708Z,29.45
2023-09-06T13:50:45.514Z,29.30
2023-09-06T13:55:47.080Z,29.20
2023-09-06T14:00:56.102Z,29.13
2023-09-06T14:05:57.798Z,28.99
2023-09-06T14:10:59.417Z,29.14
2023-09-06T14:16:04.586Z,29.00
2023-09-06T14:21:06.294Z,28.77
2023-09-06T14:26:07.877Z,28.93
2023-09-06T14:31:13.260Z,28.81
2023-09-06T14:36:14.889Z,28.72
2023-09-06T14:41:16.656Z,28.63
2023-09-06T14:46:18.922Z,28.37
2023-09-06T14:51:20.594Z,28.59
2023-09-06T14:56:22.226Z,28.42
2023-09-06T15:01:23.921Z,28.38
2023-09-06T15:06:25.446Z,28.32
2023-09-06T15:11:27.183Z,28.47
2023-09-06T15:16:28.929Z,28.60
2023-09-06T15:21:30.507Z,28.45
2023-09-06T15:26:32.099Z,28.22
2023-09-06T15:31:36.439Z,28.47
2023-09-06T15:36:38.261Z,28.37
2023-09-06T15:41:39.954Z,28.11
2023-09-06T15:46:41.599Z,28.15
2023-09-06T15:51:43.255Z,27.89
2023-09-06T15:56:45.026Z,28.16
2023-09-06T16:01:47.409Z,27.93
2023-09-06T16:06:49.099Z,27.99
2023-09-06T16:11:55.960Z,28.05
2023-09-06T16:16:58.321Z,27.87
2023-09-06T16:22:00.103Z,27.76
2023-09-06T16:27:01.676Z,27.68
2023-09-06T16:32:06.391Z,27.68
2023-09-06T16:37:08.038Z,27.46
2023-09-06T16:42:09.718Z,27.37
2023-09-06T16:47:11.365Z,27.28
2023-09-06T16:52:13.278Z,27.27
2023-09-06T16:57:17.512Z,27.30
2023-09-06T17:02:21.172Z,27.24
2023-09-06T17:07:23.036Z,27.39
2023-09-06T17:12:24.596Z,27.20
2023-09-06T17:17:26.224Z,26.87
2023-09-06T17:22:27.883Z,26.72
2023-09-06T17:27:31.205Z,26.68
2023-09-06T17:32:32.869Z,26.11
2023-09-06T17:37:36.146Z,25.31
2023-09-06T17:42:41.794Z,24.75
2023-09-06T17:47:43.479Z,24.53
2023-09-06T17:52:48.262Z,24.31
2023-09-06T17:57:49.862Z,24.02
2023-09-06T18:02:53.846Z,23.70
2023-09-06T18:07:55.541Z,23.41
2023-09-06T18:13:00.127Z,23.26
2023-09-06T18:18:02.711Z,22.97
2023-09-06T18:23:04.608Z,22.89
2023-09-06T18:28:10.101Z,22.67
2023-09-06T18:33:11.695Z,22.43
2023-09-06T18:38:15.532Z,22.18
2023-09-06T18:43:18.625Z,22.14
2023-09-06T18:48:23.892Z,21.94
2023-09-06T18:53:28.319Z,21.69
2023-09-06T18:58:30.790Z,21.45
2023-09-06T19:03:36.433Z,21.26
2023-09-06T19:08:44.033Z,20.91
2023-09-06T19:13:48.309Z,20.86
2023-09-06T19:18:50.606Z,20.70
2023-09-06T19:23:52.889Z,20.55
2023-09-06T19:28:54.649Z,20.43
2023-09-06T19:33:57.333Z,20.26
2023-09-06T19:38:59.011Z,20.07
2023-09-06T19:44:00.680Z,20.03
2023-09-06T19:49:07.188Z,19.89
2023-09-06T19:54:09.773Z,19.79
2023-09-06T19:59:11.754Z,19.71
2023-09-06T20:04:13.674Z,19.50
2023-09-06T20:09:16.468Z,19.42
2023-09-06T20:14:19.552Z,19.28
2023-09-06T20:19:21.603Z,19.29
2023-09-06T20:24:23.426Z,19.19
2023-09-06T20:29:35.649Z,19.07
2023-09-06T20:34:37.575Z,18.95
2023-09-06T20:39:40.249Z,18.88
2023-09-06T20:44:41.978Z,18.83
2023-09-06T20:49:44.838Z,18.75
2023-09-06T20:54:46.584Z,18.61
2023-09-06T20:59:52.149Z,18.57
2023-09-06T21:04:57.359Z,18.47
2023-09-06T21:09:59.313Z,18.47
2023-09-06T21:15:03.330Z,18.41
2023-09-06T21:20:08.757Z,18.26
2023-09-06T21:25:13.236Z,18.16
2023-09-06T21:30:14.944Z,18.04
2023-09-06T21:35:17.033Z,17.94
2023-09-06T21:40:19.743Z,17.86
2023-09-06T21:45:22.682Z,17.76
2023-09-06T21:50:25.748Z,17.72
2023-09-06T21:55:28.774Z,17.63
2023-09-06T22:00:31.383Z,17.59
2023-09-06T22:05:33.562Z,17.52
2023-09-06T22:10:37.168Z,17.50
2023-09-06T22:15:40.142Z,17.36
2023-09-06T22:20:46.195Z,17.26
2023-09-06T22:26:02.416Z,17.24
2023-09-06T22:31:04.280Z,17.16
2023-09-06T22:36:06.174Z,17.07
2023-09-06T22:41:07.843Z,17.03
2023-09-06T22:46:09.788Z,16.94
2023-09-06T22:51:14.041Z,16.84
2023-09-06T22:56:15.668Z,16.80
2023-09-06T23:01:17.308Z,16.74
2023-09-06T23:06:19.509Z,16.70
2023-09-06T23:11:21.125Z,16.61
2023-09-06T23:16:23.436Z,16.50
2023-09-06T23:21:39.091Z,16.44
2023-09-06T23:26:43.299Z,16.38
2023-09-06T23:31:54.645Z,16.32
2023-09-06T23:36:58.138Z,16.23
2023-09-06T23:42:11.020Z,16.22
2023-09-06T23:47:14.554Z,16.19
2023-09-06T23:52:16.367Z,16.15
2023-09-06T23:57:20.848Z,16.01
